createdAt,value
2023-04-14T00:03:36.025Z,7.35
2023-04-14T00:08:32.362Z,7.4
2023-04-14T00:13:28.924Z,7.35
2023-04-14T00:18:25.443Z,7.3
2023-04-14T00:24:36.095Z,7.35
2023-04-14T00:29:32.700Z,7.35
2023-04-14T00:34:29.172Z,7.4
2023-04-14T00:39:25.680Z,7.4
2023-04-14T00:45:36.445Z,7.4
2023-04-14T00:50:32.894Z,7.4
2023-04-14T00:55:29.485Z,7.44
2023-04-14T01:00:25.963Z,7.4
2023-04-14T01:06:36.618Z,7.25
2023-04-14T01:11:33.175Z,7.3
2023-04-14T01:16:29.702Z,7.25
2023-04-14T01:21:26.288Z,7.11
2023-04-14T01:27:36.959Z,7.11
2023-04-14T01:32:33.444Z,7.11
2023-04-14T01:37:29.961Z,7.2
2023-04-14T01:42:26.526Z,7.16
2023-04-14T01:48:37.188Z,7.16
2023-04-14T01:53:33.738Z,7.11
2023-04-14T01:58:30.207Z,7.06
2023-04-14T02:03:26.810Z,7.02
2023-04-14T02:09:37.423Z,6.97
2023-04-14T02:14:33.964Z,6.92
2023-04-14T02:19:30.453Z,6.92
2023-04-14T02:24:27.087Z,6.88
2023-04-14T02:35:34.198Z,6.88
2023-04-14T02:40:30.744Z,6.88
2023-04-14T02:45:27.350Z,6.88
2023-04-14T02:51:38.022Z,6.83
2023-04-14T02:56:34.482Z,6.79
2023-04-14T03:01:31.011Z,6.74
2023-04-14T03:06:27.576Z,6.7
2023-04-14T03:11:24.125Z,6.7
2023-04-14T03:17:34.781Z,6.61
2023-04-14T03:22:31.314Z,6.57
2023-04-14T03:27:27.939Z,6.61
2023-04-14T03:32:24.398Z,6.65
2023-04-14T03:38:35.025Z,6.65
2023-04-14T03:43:31.550Z,6.57
2023-04-14T03:48:28.191Z,6.65
2023-04-14T03:53:24.594Z,6.65
2023-04-14T03:59:35.302Z,6.65
2023-04-14T04:09:28.382Z,6.61
2023-04-14T04:14:24.886Z,6.57
2023-04-14T04:20:35.569Z,6.61
2023-04-14T04:25:32.083Z,6.57
2023-04-14T04:30:28.729Z,6.52
2023-04-14T04:35:25.113Z,6.57
2023-04-14T04:41:35.850Z,6.52
2023-04-14T04:46:32.480Z,6.57
2023-04-14T04:51:28.953Z,6.61
2023-04-14T04:56:25.398Z,6.52
2023-04-14T05:02:36.215Z,6.52
2023-04-14T05:07:32.589Z,6.52
2023-04-14T05:12:29.123Z,6.57
2023-04-14T05:17:25.677Z,6.57
2023-04-14T05:23:36.431Z,6.61
2023-04-14T05:28:32.853Z,6.65
2023-04-14T05:33:29.492Z,6.65
2023-04-14T05:38:25.937Z,6.74
2023-04-14T05:44:36.657Z,6.83
2023-04-14T05:49:33.129Z,6.97
2023-04-14T05:54:29.942Z,7.02
2023-04-14T05:59:26.186Z,7.02
2023-04-14T06:05:36.909Z,7.16
2023-04-14T06:10:33.429Z,7.16
2023-04-14T06:15:29.959Z,7.2
2023-04-14T06:20:26.529Z,7.35
2023-04-14T06:26:37.231Z,7.44
2023-04-14T06:31:33.715Z,7.54
2023-04-14T06:36:30.218Z,7.64
2023-04-14T06:41:26.765Z,7.64
2023-04-14T06:47:37.386Z,7.74
2023-04-14T06:52:33.926Z,7.84
2023-04-14T06:57:30.416Z,7.95
2023-04-14T07:02:27.119Z,8.05
2023-04-14T07:08:38.006Z,8.15
2023-04-14T07:13:34.232Z,8.37
2023-04-14T07:18:30.784Z,8.42
2023-04-14T07:23:27.260Z,8.59
2023-04-14T07:29:37.937Z,8.7
2023-04-14T07:34:34.462Z,8.33
2023-04-14T07:39:31.030Z,8.15
2023-04-14T07:44:27.525Z,8.81
2023-04-14T07:49:24.043Z,8.75
2023-04-14T07:55:34.694Z,8.94
2023-04-14T08:00:31.264Z,8.69
2023-04-14T08:05:27.887Z,8.9
2023-04-14T08:11:38.553Z,8.45
2023-04-14T08:16:35.019Z,7.94
2023-04-14T08:21:31.594Z,7.74
2023-04-14T08:26:28.097Z,8.04
2023-04-14T08:31:24.662Z,8.16
2023-04-14T08:37:35.660Z,7.93
2023-04-14T08:42:31.763Z,7.87
2023-04-14T08:47:28.274Z,7.17
2023-04-14T08:52:24.817Z,7.13
2023-04-14T08:58:35.510Z,7.14
2023-04-14T09:03:32.598Z,6.98
2023-04-14T09:08:28.583Z,6.88
2023-04-14T09:19:35.752Z,6.36
2023-04-14T09:24:32.729Z,6.33
2023-04-14T09:29:28.890Z,5.98
2023-04-14T09:34:25.394Z,6.54
2023-04-14T09:40:36.019Z,6.48
2023-04-14T09:45:32.643Z,6.49
2023-04-14T09:50:29.123Z,6.62
2023-04-14T09:55:25.626Z,6.69
2023-04-14T10:01:36.572Z,6.52
2023-04-14T10:06:32.925Z,6.82
2023-04-14T10:11:29.688Z,6.72
2023-04-14T10:16:26.008Z,6.32
2023-04-14T10:22:37.002Z,6.32
2023-04-14T10:27:33.177Z,5.96
2023-04-14T10:32:29.665Z,6.17
2023-04-14T10:37:26.160Z,5.71
2023-04-14T10:43:36.914Z,5.96
2023-04-14T10:47:27.412Z,6.21
2023-04-14T10:53:38.078Z,6.28
2023-04-14T10:58:34.605Z,6.09
2023-04-14T11:03:31.401Z,6.01
2023-04-14T11:08:27.693Z,6.49
2023-04-14T11:13:24.267Z,6.33
2023-04-14T11:19:34.912Z,5.76
2023-04-14T11:24:31.442Z,6.38
2023-04-14T11:29:28.048Z,6.57
2023-04-14T11:34:24.478Z,6.59
2023-04-14T11:40:35.126Z,6.16
2023-04-14T11:45:31.735Z,6.09
2023-04-14T11:50:28.197Z,6.4
2023-04-14T11:55:24.733Z,6.26
2023-04-14T12:01:35.409Z,6.4
2023-04-14T12:06:31.976Z,6.4
2023-04-14T12:11:28.498Z,6.11
2023-04-14T12:16:25.020Z,5.48
2023-04-14T12:22:35.751Z,5.79
2023-04-14T12:27:32.202Z,5.42
2023-04-14T12:32:28.744Z,6.22
2023-04-14T12:37:25.286Z,5.03
2023-04-14T12:43:35.974Z,4.82
2023-04-14T12:48:32.537Z,4.88
2023-04-14T12:53:28.981Z,4.66
2023-04-14T12:58:25.530Z,5.45
2023-04-14T13:04:36.317Z,5.38
2023-04-14T13:09:32.791Z,4.93
2023-04-14T13:14:29.318Z,5.51
2023-04-14T13:19:25.812Z,5.15
2023-04-14T13:25:36.557Z,5.54
2023-04-14T13:30:33.112Z,5.09
2023-04-14T13:35:29.664Z,5.41
2023-04-14T13:46:41.158Z,5.91
2023-04-14T13:51:33.525Z,5.93
2023-04-14T13:56:29.888Z,5.64
2023-04-14T14:01:26.360Z,6.21
2023-04-14T14:07:37.017Z,5.63
2023-04-14T14:12:33.573Z,5.54
2023-04-14T14:17:30.148Z,5.67
2023-04-14T14:22:26.637Z,5.35
2023-04-14T14:28:37.379Z,5.14
2023-04-14T14:33:33.821Z,5.13
2023-04-14T14:38:30.354Z,5.73
2023-04-14T14:43:26.881Z,5.52
2023-04-14T14:49:39.334Z,6.28
2023-04-14T14:54:34.079Z,6.15
2023-04-14T14:59:30.633Z,5.55
2023-04-14T15:04:27.196Z,5.68
2023-04-14T15:10:37.812Z,5.92
2023-04-14T15:15:34.337Z,6.53
2023-04-14T15:20:30.927Z,5.73
2023-04-14T15:25:27.516Z,4.38
2023-04-14T15:31:38.279Z,4.88
2023-04-14T15:36:34.660Z,4.47
2023-04-14T15:41:31.171Z,4.11
2023-04-14T15:46:27.898Z,4.18
2023-04-14T15:52:38.377Z,4.5
2023-04-14T15:57:34.920Z,4.92
2023-04-14T16:02:31.500Z,5.76
2023-04-14T16:07:28.034Z,5.89
2023-04-14T16:12:24.538Z,5.37
2023-04-14T16:18:35.201Z,5.04
2023-04-14T16:23:31.716Z,4.92
2023-04-14T16:28:28.379Z,5.18
2023-04-14T16:33:24.813Z,5.54
2023-04-14T16:39:35.482Z,5.76
2023-04-14T16:44:31.981Z,5.49
2023-04-14T16:49:28.585Z,5.82
2023-04-14T16:54:25.080Z,5.62
2023-04-14T17:00:35.799Z,5.53
2023-04-14T17:05:32.314Z,5.9
2023-04-14T17:10:28.776Z,6.03
2023-04-14T17:15:25.308Z,5.79
2023-04-14T17:21:36.025Z,5.97
2023-04-14T17:26:32.519Z,6.01
2023-04-14T17:31:29.133Z,5.86
2023-04-14T17:36:25.561Z,6.06
2023-04-14T17:42:36.222Z,5.58
2023-04-14T17:47:32.779Z,5.48
2023-04-14T17:52:29.334Z,5.19
2023-04-14T17:57:25.829Z,5.3
2023-04-14T18:03:36.684Z,5.2
2023-04-14T18:08:33.074Z,5.12
2023-04-14T18:13:29.605Z,4.9
2023-04-14T18:18:26.182Z,4.69
2023-04-14T18:29:33.338Z,4.52
2023-04-14T18:34:29.959Z,4.47
2023-04-14T18:39:26.498Z,4.46
2023-04-14T18:45:37.075Z,4.51
2023-04-14T18:50:33.575Z,4.57
2023-04-14T18:55:44.719Z,4.65
2023-04-14T19:00:26.859Z,4.65
2023-04-14T19:05:31.369Z,4.87
2023-04-14T19:10:27.913Z,5.01
2023-04-14T19:15:24.430Z,5.06
2023-04-14T19:21:35.114Z,5.08
2023-04-14T19:26:31.607Z,4.87
2023-04-14T19:31:28.456Z,4.97
2023-04-14T19:36:24.744Z,5.06
2023-04-14T19:42:35.406Z,5.08
2023-04-14T19:52:28.532Z,5
2023-04-14T19:57:24.974Z,4.94
2023-04-14T20:03:35.738Z,5.01
2023-04-14T20:08:32.185Z,5.07
2023-04-14T20:13:28.744Z,5.08
2023-04-14T20:24:35.932Z,5.08
2023-04-14T20:29:32.534Z,5.02
2023-04-14T20:34:28.983Z,5.11
2023-04-14T20:39:25.504Z,5.26
2023-04-14T20:45:36.279Z,5
2023-04-14T20:50:32.780Z,5.04
2023-04-14T20:55:29.326Z,5.07
2023-04-14T21:00:25.770Z,5.2
2023-04-14T21:06:36.436Z,5.39
2023-04-14T21:11:33.008Z,5.51
2023-04-14T21:16:29.599Z,5.76
2023-04-14T21:21:26.048Z,5.86
2023-04-14T21:27:36.834Z,5.92
2023-04-14T21:32:33.299Z,6.06
2023-04-14T21:37:29.805Z,6.16
2023-04-14T21:42:26.312Z,6.13
2023-04-14T21:48:36.988Z,6.16
2023-04-14T21:53:33.529Z,6.14
2023-04-14T21:58:30.145Z,6.03
2023-04-14T22:03:26.769Z,6.17
2023-04-14T22:09:37.240Z,6.06
2023-04-14T22:14:33.767Z,6.11
2023-04-14T22:19:30.276Z,6.12
2023-04-14T22:24:26.929Z,6.07
2023-04-14T22:30:37.613Z,6.13
2023-04-14T22:35:34.066Z,6.09
2023-04-14T22:40:30.545Z,6.09
2023-04-14T22:45:27.153Z,6.05
2023-04-14T22:51:37.840Z,6.1
2023-04-14T22:56:34.318Z,6.1
2023-04-14T23:01:30.865Z,6.22
2023-04-14T23:06:27.370Z,6.26
2023-04-14T23:12:38.052Z,6.22
2023-04-14T23:17:34.647Z,6.28
2023-04-14T23:22:31.120Z,6.25
2023-04-14T23:27:27.616Z,6.33
2023-04-14T23:32:24.175Z,6.33
2023-04-14T23:38:34.881Z,6.33
2023-04-14T23:43:31.339Z,6.25
2023-04-14T23:48:28.249Z,6.4
2023-04-14T23:53:24.424Z,6.44
2023-04-14T23:59:35.146Z,6.79
